createdAt,value
2022-08-26T00:03:14.113Z,96892.81
2022-08-26T00:08:17.943Z,96893.75
2022-08-26T00:13:19.920Z,96885.81
2022-08-26T00:18:22.761Z,96889.16
2022-08-26T00:23:24.802Z,96889.97
2022-08-26T00:28:30.546Z,96887.16
2022-08-26T00:33:32.242Z,96883.72
2022-08-26T00:38:35.554Z,96888.28
2022-08-26T00:43:46.229Z,96891.19
2022-08-26T00:48:53.989Z,96883.16
2022-08-26T00:54:03.828Z,96889.75
2022-08-26T00:59:11.806Z,96887.44
2022-08-26T01:04:15.890Z,96889.44
2022-08-26T01:09:19.303Z,96883.59
2022-08-26T01:14:22.486Z,96885.59
2022-08-26T01:19:31.089Z,96882.66
2022-08-26T01:24:32.903Z,96888.69
2022-08-26T01:29:36.122Z,96883.69
2022-08-26T01:34:39.991Z,96894.63
2022-08-26T01:39:43.129Z,96891.19
2022-08-26T01:44:51.431Z,96881.66
2022-08-26T01:49:55.806Z,96878.53
2022-08-26T01:54:59.469Z,96879.25
2022-08-26T02:00:06.002Z,96885.94
2022-08-26T02:05:30.769Z,96882.16
2022-08-26T02:10:34.149Z,96889.88
2022-08-26T02:15:42.886Z,96894.47
2022-08-26T02:20:44.942Z,96888.56
2022-08-26T02:25:56.017Z,96886.78
2022-08-26T02:30:57.707Z,96884.63
2022-08-26T02:36:00.812Z,96881.88
2022-08-26T02:41:02.605Z,96891.53
2022-08-26T02:46:05.917Z,96895.13
2022-08-26T02:51:08.060Z,96888.25
2022-08-26T02:56:10.430Z,96888.25
2022-08-26T03:01:29.982Z,96885.81
2022-08-26T03:06:31.794Z,96889.91
2022-08-26T03:11:34.357Z,96888.91
2022-08-26T03:16:37.386Z,96882.56
2022-08-26T03:21:39.538Z,96877.06
2022-08-26T03:26:52.361Z,96871.53
2022-08-26T03:31:55.375Z,96873.97
2022-08-26T03:36:57.081Z,96873.66
2022-08-26T03:41:58.899Z,96878.53
2022-08-26T03:47:00.706Z,96879.53
2022-08-26T03:52:04.448Z,96863.84
2022-08-26T03:57:06.162Z,96870.66
2022-08-26T04:02:11.361Z,96873.63
2022-08-26T04:07:13.546Z,96875.25
2022-08-26T04:12:17.093Z,96864.50
2022-08-26T04:17:19.593Z,96879.19
2022-08-26T04:22:26.729Z,96875.91
2022-08-26T04:27:31.182Z,96880.47
2022-08-26T04:32:32.916Z,96881.16
2022-08-26T04:37:35.693Z,96878.88
2022-08-26T04:42:37.426Z,96874.47
2022-08-26T04:47:39.123Z,96876.75
2022-08-26T04:52:40.797Z,96882.47
2022-08-26T04:57:43.082Z,96884.25
2022-08-26T05:02:46.115Z,96883.91
2022-08-26T05:07:47.876Z,96886.03
2022-08-26T05:12:51.583Z,96889.81
2022-08-26T05:18:21.286Z,96899.75
2022-08-26T05:23:25.242Z,96896.47
2022-08-26T05:28:28.930Z,96900.72
2022-08-26T05:33:30.574Z,96889.63
2022-08-26T05:38:32.220Z,96892.06
2022-08-26T05:43:34.316Z,96889.44
2022-08-26T05:48:37.893Z,96895.00
2022-08-26T05:53:43.875Z,96894.66
2022-08-26T05:58:58.368Z,96890.09
2022-08-26T06:04:02.027Z,96894.97
2022-08-26T06:09:06.358Z,96889.38
2022-08-26T06:14:11.673Z,96892.00
2022-08-26T06:19:15.525Z,96901.28
2022-08-26T06:24:35.705Z,96904.31
2022-08-26T06:29:38.449Z,96903.88
2022-08-26T06:34:40.314Z,96901.84
2022-08-26T06:39:41.970Z,96890.19
2022-08-26T06:44:44.585Z,96897.63
2022-08-26T06:49:46.538Z,96911.59
2022-08-26T06:54:48.444Z,96913.53
2022-08-26T06:59:52.757Z,96911.66
2022-08-26T07:04:54.582Z,96902.41
2022-08-26T07:09:58.722Z,96915.72
2022-08-26T07:15:00.551Z,96913.47
2022-08-26T07:20:03.416Z,96912.81
2022-08-26T07:25:08.630Z,96914.81
2022-08-26T07:30:11.005Z,96905.69
2022-08-26T07:35:16.980Z,96908.94
2022-08-26T07:40:19.098Z,96906.22
2022-08-26T07:45:22.130Z,96904.63
2022-08-26T07:50:49.100Z,96901.84
2022-08-26T07:55:46.625Z,96901.97
2022-08-26T08:00:48.689Z,96909.25
2022-08-26T08:05:50.640Z,96906.22
2022-08-26T08:10:55.850Z,96902.34
2022-08-26T08:15:57.561Z,96898.75
2022-08-26T08:21:21.378Z,96901.69
2022-08-26T08:26:26.081Z,96902.66
2022-08-26T08:31:56.953Z,96892.34
2022-08-26T08:36:53.453Z,96894.72
2022-08-26T08:42:05.932Z,96891.50
2022-08-26T08:47:30.938Z,96898.28
2022-08-26T08:52:35.539Z,96893.25
2022-08-26T08:57:43.749Z,96890.97
2022-08-26T09:02:59.920Z,96882.47
2022-08-26T09:08:06.631Z,96882.34
2022-08-26T09:13:13.716Z,96876.00
2022-08-26T09:18:30.601Z,96882.56
2022-08-26T09:23:35.932Z,96879.91
2022-08-26T09:28:42.518Z,96876.28
2022-08-26T09:33:44.407Z,96870.84
2022-08-26T09:38:46.152Z,96856.31
2022-08-26T09:44:18.422Z,96864.28
2022-08-26T09:49:25.393Z,96863.41
2022-08-26T09:54:30.425Z,96849.84
2022-08-26T09:59:34.132Z,96851.78
2022-08-26T10:04:37.194Z,96825.53
2022-08-26T10:09:43.067Z,96812.69
2022-08-26T10:14:59.730Z,96810.28
2022-08-26T10:20:15.813Z,96810.28
2022-08-26T10:25:33.244Z,96801.88
2022-08-26T10:30:42.961Z,96795.09
2022-08-26T10:35:54.907Z,96797.34
2022-08-26T10:41:20.661Z,96793.16
2022-08-26T10:46:27.367Z,96805.34
2022-08-26T10:51:36.341Z,96804.44
2022-08-26T10:56:51.005Z,96806.47
2022-08-26T11:02:07.433Z,96810.94
2022-08-26T11:07:34.118Z,96810.63
2022-08-26T11:12:36.090Z,96812.13
2022-08-26T11:24:52.383Z,96798.16
2022-08-26T11:30:08.242Z,96787.06
2022-08-26T11:35:19.235Z,96782.28
2022-08-26T11:40:27.808Z,96772.19
2022-08-26T11:46:00.135Z,96781.03
2022-08-26T11:51:06.601Z,96776.16
2022-08-26T11:56:33.158Z,96768.94
2022-08-26T12:01:43.854Z,96761.75
2022-08-26T12:06:50.785Z,96764.19
2022-08-26T12:12:25.021Z,96755.16
2022-08-26T12:17:27.928Z,96746.72
2022-08-26T12:22:34.594Z,96737.38
2022-08-26T12:27:45.442Z,96728.06
2022-08-26T12:32:57.593Z,96729.19
2022-08-26T12:38:01.423Z,96733.44
2022-08-26T12:43:06.433Z,96724.06
2022-08-26T12:48:44.479Z,96728.81
2022-08-26T12:53:46.477Z,96725.59
2022-08-26T12:59:02.624Z,96725.00
2022-08-26T13:04:06.554Z,96723.47
2022-08-26T13:09:08.477Z,96709.72
2022-08-26T13:14:15.538Z,96712.53
2022-08-26T13:19:29.515Z,96702.19
2022-08-26T13:24:35.938Z,96693.41
2022-08-26T13:29:38.246Z,96704.50
2022-08-26T13:34:40.495Z,96699.50
2022-08-26T13:39:43.809Z,96699.66
2022-08-26T13:44:47.801Z,96693.38
2022-08-26T13:49:49.504Z,96696.63
2022-08-26T13:54:51.811Z,96693.44
2022-08-26T13:59:57.093Z,96687.09
2022-08-26T14:04:59.183Z,96683.84
2022-08-26T14:10:01.586Z,96676.66
2022-08-26T14:15:03.737Z,96671.81
2022-08-26T14:20:07.907Z,96662.97
2022-08-26T14:25:12.158Z,96652.47
2022-08-26T14:30:14.691Z,96649.22
2022-08-26T14:35:22.900Z,96646.81
2022-08-26T14:40:29.812Z,96638.72
2022-08-26T14:45:34.757Z,96645.94
2022-08-26T14:50:36.535Z,96645.09
2022-08-26T14:55:41.108Z,96637.41
2022-08-26T15:00:43.404Z,96635.66
2022-08-26T15:05:48.154Z,96632.06
2022-08-26T15:10:50.734Z,96629.75
2022-08-26T15:15:52.545Z,96617.72
2022-08-26T15:20:54.498Z,96623.06
2022-08-26T15:25:56.535Z,96620.97
2022-08-26T15:30:58.267Z,96610.41
2022-08-26T15:36:01.827Z,96596.25
2022-08-26T15:41:05.074Z,96588.56
2022-08-26T15:46:10.886Z,96592.50
2022-08-26T15:51:31.817Z,96595.28
2022-08-26T15:56:36.234Z,96591.53
2022-08-26T16:01:38.661Z,96591.50
2022-08-26T16:06:42.402Z,96590.66
2022-08-26T16:11:44.126Z,96596.16
2022-08-26T16:16:45.769Z,96598.44
2022-08-26T16:21:48.042Z,96601.88
2022-08-26T16:26:49.747Z,96606.09
2022-08-26T16:31:53.270Z,96599.41
2022-08-26T16:36:54.991Z,96596.13
2022-08-26T16:41:57.137Z,96601.22
2022-08-26T16:46:58.961Z,96602.28
2022-08-26T16:52:04.481Z,96598.88
2022-08-26T16:57:08.469Z,96599.56
2022-08-26T17:02:11.795Z,96612.22
2022-08-26T17:07:13.627Z,96616.94
2022-08-26T17:12:15.494Z,96617.03
2022-08-26T17:17:17.335Z,96622.41
2022-08-26T17:22:19.703Z,96613.09
2022-08-26T17:27:21.537Z,96650.63
2022-08-26T17:32:23.583Z,96663.38
2022-08-26T17:37:25.848Z,96666.66
2022-08-26T17:42:31.533Z,96667.16
2022-08-26T17:47:34.375Z,96691.25
2022-08-26T17:52:37.058Z,96699.88
2022-08-26T17:57:40.680Z,96710.84
2022-08-26T18:02:44.702Z,96712.41
2022-08-26T18:07:47.155Z,96717.53
2022-08-26T18:12:49.001Z,96707.44
2022-08-26T18:17:50.817Z,96713.09
2022-08-26T18:22:53.995Z,96726.19
2022-08-26T18:27:55.683Z,96731.22
2022-08-26T18:32:57.898Z,96723.66
2022-08-26T18:38:11.301Z,96728.88
2022-08-26T18:43:13.623Z,96732.47
2022-08-26T18:48:16.664Z,96724.28
2022-08-26T18:53:18.332Z,96708.94
2022-08-26T18:58:20.176Z,96698.84
2022-08-26T19:03:22.068Z,96705.13
2022-08-26T19:08:23.857Z,96706.84
2022-08-26T19:13:26.166Z,96708.22
2022-08-26T19:18:27.961Z,96707.28
2022-08-26T19:23:31.905Z,96714.53
2022-08-26T19:28:34.558Z,96719.38
2022-08-26T19:33:41.866Z,96760.25
2022-08-26T19:38:45.009Z,96775.16
2022-08-26T19:43:46.937Z,96767.75
2022-08-26T19:48:54.064Z,96770.28
2022-08-26T19:53:59.699Z,96766.66
2022-08-26T19:59:01.678Z,96775.34
2022-08-26T20:04:04.149Z,96767.09
2022-08-26T20:09:06.007Z,96783.53
2022-08-26T20:14:07.818Z,96784.91
2022-08-26T20:19:28.283Z,96785.41
2022-08-26T20:24:31.451Z,96784.03
2022-08-26T20:29:34.783Z,96788.72
2022-08-26T20:34:36.937Z,96780.00
2022-08-26T20:39:38.706Z,96781.41
2022-08-26T20:44:43.217Z,96794.72
2022-08-26T20:49:56.978Z,96794.00
2022-08-26T20:54:58.660Z,96788.22
2022-08-26T21:00:00.961Z,96788.91
2022-08-26T21:05:02.854Z,96792.88
2022-08-26T21:10:05.002Z,96796.81
2022-08-26T21:15:07.425Z,96789.81
2022-08-26T21:20:09.566Z,96797.19
2022-08-26T21:25:11.658Z,96815.94
2022-08-26T21:30:15.541Z,96822.22
2022-08-26T21:35:18.402Z,96826.44
2022-08-26T21:40:20.175Z,96839.38
2022-08-26T21:45:21.926Z,96833.31
2022-08-26T21:50:23.842Z,96841.72
2022-08-26T21:55:25.831Z,96852.19
2022-08-26T22:00:27.909Z,96842.41
2022-08-26T22:05:29.997Z,96843.50
2022-08-26T22:10:31.793Z,96836.88
2022-08-26T22:15:35.437Z,96846.69
2022-08-26T22:20:37.186Z,96847.13
2022-08-26T22:25:39.013Z,96834.03
2022-08-26T22:30:45.582Z,96836.03
2022-08-26T22:35:50.548Z,96842.53
2022-08-26T22:40:57.464Z,96826.97
2022-08-26T22:45:59.449Z,96827.41
2022-08-26T22:51:01.208Z,96825.91
2022-08-26T22:56:04.056Z,96835.41
2022-08-26T23:01:07.089Z,96822.13
2022-08-26T23:06:10.347Z,96831.56
2022-08-26T23:11:13.773Z,96832.00
2022-08-26T23:16:15.579Z,96822.56
2022-08-26T23:21:17.591Z,96802.97
2022-08-26T23:26:19.860Z,96797.03
2022-08-26T23:31:21.610Z,96801.03
2022-08-26T23:36:23.652Z,96786.78
2022-08-26T23:41:25.867Z,96795.31
2022-08-26T23:46:27.723Z,96799.16
2022-08-26T23:52:05.036Z,96808.63
2022-08-26T23:57:07.305Z,96816.47
